Time;durP1;ratioP1;P1;durP2;ratioP2;P2;SDS_P1;SDS_P2;PMS_P1;PMS_P2;Temp;Humidity;BMP_temperature;BMP_pressure;BME280_temperature;BME280_humidity;BME280_pressure;Samples;Min_cycle;Max_cycle;Signal;HPM_P1;HPM_P2
2023/01/17 00:02:29;;;;;;;84.20;38.50;;;3.70;99.90;;;;;;10412412;28;20068;-82
2023/01/17 00:12:58;;;;;;;108.80;45.23;;;3.60;99.90;;;;;;10400193;28;20169;-83
2023/01/17 00:17:59;;;;;;;119.50;51.67;;;3.70;99.90;;;;;;10401752;28;20037;-82
2023/01/17 01:36:39;;;;;;;107.07;49.57;;;3.60;99.90;;;;;;10410574;28;20045;-83
2023/01/17 01:41:39;;;;;;;96.97;46.47;;;3.60;99.90;;;;;;10407354;28;20412;-83
2023/01/17 01:46:40;;;;;;;101.00;45.87;;;3.60;99.90;;;;;;10393185;28;20045;-83
2023/01/17 01:51:46;;;;;;;97.77;47.33;;;3.60;99.90;;;;;;10405423;28;20095;-83
2023/01/17 01:56:48;;;;;;;89.40;44.27;;;3.60;99.90;;;;;;10409332;28;20037;-84
2023/01/17 02:01:51;;;;;;;89.73;45.13;;;3.60;99.90;;;;;;10409092;28;20041;-85
2023/01/17 02:06:57;;;;;;;92.47;43.47;;;3.60;99.90;;;;;;10403919;28;20048;-85
2023/01/17 02:11:58;;;;;;;81.67;38.93;;;3.60;99.90;;;;;;10405812;28;20055;-82
2023/01/17 02:17:35;;;;;;;84.07;44.97;;;3.60;99.90;;;;;;10429159;28;20039;-84
2023/01/17 02:22:38;;;;;;;80.13;39.13;;;3.60;99.90;;;;;;10386095;28;20029;-83
2023/01/17 02:28:03;;;;;;;68.70;35.47;;;3.60;99.90;;;;;;10418610;28;20472;-83
2023/01/17 02:33:26;;;;;;;48.80;25.00;;;3.60;99.90;;;;;;10393755;28;20543;-84
2023/01/17 02:38:42;;;;;;;41.37;21.87;;;3.60;99.90;;;;;;10404587;28;20329;-85
2023/01/17 02:43:42;;;;;;;42.40;20.40;;;3.60;99.90;;;;;;10396705;28;20029;-82
2023/01/17 02:48:44;;;;;;;33.67;17.43;;;3.60;99.90;;;;;;10402788;28;20530;-83
2023/01/17 02:54:12;;;;;;;33.03;18.60;;;3.50;99.90;;;;;;10404904;28;20083;-83
2023/01/17 02:59:50;;;;;;;34.07;16.50;;;3.50;99.90;;;;;;10385263;28;20025;-83
2023/01/17 03:05:16;;;;;;;29.57;14.90;;;3.40;99.90;;;;;;10384374;28;20052;-82
2023/01/17 03:10:18;;;;;;;32.77;15.90;;;3.30;99.90;;;;;;10408903;28;20048;-82
2023/01/17 03:15:19;;;;;;;30.33;15.73;;;3.20;99.90;;;;;;10402283;28;20091;-82
2023/01/17 03:20:20;;;;;;;27.10;15.47;;;3.00;99.90;;;;;;10401520;28;20029;-85
2023/01/17 03:25:20;;;;;;;30.43;15.90;;;2.90;99.90;;;;;;10404430;28;20037;-86
2023/01/17 03:30:21;;;;;;;24.30;13.67;;;2.80;99.90;;;;;;10402966;28;20043;-83
2023/01/17 03:35:22;;;;;;;29.27;15.70;;;2.70;99.90;;;;;;10407510;28;20117;-83
2023/01/17 03:40:23;;;;;;;28.23;14.00;;;2.60;99.90;;;;;;10380179;28;20027;-83
2023/01/17 03:45:23;;;;;;;30.60;16.10;;;2.50;99.90;;;;;;10401792;28;20041;-85
2023/01/17 03:50:24;;;;;;;33.97;16.20;;;2.40;99.90;;;;;;10405199;28;20029;-82
2023/01/17 03:55:24;;;;;;;31.80;16.57;;;2.30;99.90;;;;;;10408426;28;20052;-84
2023/01/17 04:00:25;;;;;;;31.73;15.57;;;2.30;99.90;;;;;;10383582;28;20480;-83
2023/01/17 04:05:25;;;;;;;30.10;16.63;;;2.20;99.90;;;;;;10401988;28;20034;-83
2023/01/17 04:10:26;;;;;;;24.50;12.13;;;2.10;99.90;;;;;;10402783;28;20516;-82
2023/01/17 04:15:27;;;;;;;23.47;12.17;;;2.00;99.90;;;;;;10412416;28;20086;-80
2023/01/17 04:20:33;;;;;;;25.60;11.97;;;2.00;99.90;;;;;;10401397;28;20132;-81
2023/01/17 04:25:34;;;;;;;29.17;15.03;;;1.90;99.90;;;;;;10401898;28;20041;-81
2023/01/17 04:30:34;;;;;;;24.00;10.60;;;1.80;99.90;;;;;;10404419;28;20063;-83
2023/01/17 04:35:35;;;;;;;24.17;11.13;;;1.70;99.90;;;;;;10414153;28;20048;-83
2023/01/17 04:40:35;;;;;;;37.23;16.83;;;1.60;99.90;;;;;;10418762;28;20029;-80
2023/01/17 04:45:37;;;;;;;31.50;17.23;;;1.60;99.90;;;;;;10407747;28;20053;-82
2023/01/17 04:50:38;;;;;;;29.70;15.60;;;1.60;99.90;;;;;;10407341;28;20037;-84
2023/01/17 04:55:39;;;;;;;35.80;18.67;;;1.50;99.90;;;;;;10408171;28;20021;-84
2023/01/17 05:00:40;;;;;;;31.37;16.67;;;1.30;99.90;;;;;;10397383;28;20429;-84
2023/01/17 05:05:42;;;;;;;37.63;18.27;;;1.20;99.90;;;;;;10397601;28;20041;-81
2023/01/17 05:10:45;;;;;;;42.83;19.37;;;1.30;99.90;;;;;;10407361;28;20049;-83
2023/01/17 05:15:46;;;;;;;40.27;22.47;;;1.40;99.90;;;;;;10408904;28;20034;-83
2023/01/17 05:20:47;;;;;;;45.00;21.60;;;1.50;99.90;;;;;;10407153;28;20034;-84
2023/01/17 05:25:47;;;;;;;37.40;19.80;;;1.60;99.90;;;;;;10404731;28;20132;-84
2023/01/17 05:30:48;;;;;;;42.30;22.23;;;1.60;99.90;;;;;;10396767;28;20048;-83
2023/01/17 05:35:48;;;;;;;54.83;25.40;;;1.70;99.90;;;;;;10389280;28;20038;-85
2023/01/17 05:40:49;;;;;;;40.13;20.67;;;1.70;99.90;;;;;;10406968;28;20025;-84
2023/01/17 05:45:50;;;;;;;46.77;23.67;;;1.70;99.90;;;;;;10405055;28;20041;-83
2023/01/17 05:50:51;;;;;;;40.87;21.43;;;1.70;99.90;;;;;;10397333;28;20025;-86
2023/01/17 05:55:51;;;;;;;49.63;24.37;;;1.70;99.90;;;;;;10389268;28;20447;-85
2023/01/17 06:00:53;;;;;;;50.77;26.17;;;1.80;99.90;;;;;;10388580;28;20377;-85
2023/01/17 06:05:54;;;;;;;57.93;30.13;;;1.80;99.90;;;;;;10405582;28;20073;-85
2023/01/17 06:10:58;;;;;;;80.77;40.67;;;1.80;99.90;;;;;;10406771;28;20128;-84
2023/01/17 06:16:02;;;;;;;83.30;40.47;;;1.90;99.90;;;;;;10406734;28;20104;-83
2023/01/17 06:21:03;;;;;;;77.10;36.13;;;1.90;99.90;;;;;;10405308;28;20464;-84
2023/01/17 06:26:04;;;;;;;74.03;37.53;;;1.90;99.90;;;;;;10405378;28;20037;-86
2023/01/17 06:31:08;;;;;;;73.77;38.07;;;1.90;99.90;;;;;;10387356;28;20025;-84
2023/01/17 06:36:08;;;;;;;76.87;39.57;;;1.90;99.90;;;;;;10405014;28;20548;-85
2023/01/17 06:41:09;;;;;;;76.57;38.97;;;1.90;99.90;;;;;;10377852;28;20029;-84
2023/01/17 06:46:09;;;;;;;83.10;39.20;;;1.90;99.90;;;;;;10386082;28;20037;-84
2023/01/17 06:51:10;;;;;;;70.97;34.57;;;1.80;99.90;;;;;;10404435;28;20116;-85
2023/01/17 06:56:11;;;;;;;74.97;34.50;;;1.80;99.90;;;;;;10403216;28;20806;-86
2023/01/17 07:01:11;;;;;;;83.83;41.23;;;1.70;99.90;;;;;;10403821;28;20056;-83
2023/01/17 07:06:12;;;;;;;72.80;38.80;;;1.70;99.90;;;;;;10403017;28;20026;-84
2023/01/17 07:11:12;;;;;;;63.50;32.17;;;1.70;99.90;;;;;;10403101;28;20045;-84
2023/01/17 07:16:13;;;;;;;68.97;35.03;;;1.80;99.90;;;;;;10404063;28;20718;-85
2023/01/17 07:21:14;;;;;;;68.53;32.83;;;1.80;99.90;;;;;;10402776;28;20053;-83
2023/01/17 07:26:16;;;;;;;75.10;36.07;;;1.80;99.90;;;;;;10403071;28;20065;-85
2023/01/17 07:31:16;;;;;;;77.90;38.47;;;1.80;99.90;;;;;;10384544;28;20546;-85
2023/01/17 07:36:17;;;;;;;82.40;45.77;;;1.80;99.90;;;;;;10402967;28;20030;-85
2023/01/17 07:41:17;;;;;;;68.77;38.37;;;2.00;99.90;;;;;;10402289;28;20382;-84
2023/01/17 07:46:18;;;;;;;105.30;49.53;;;2.00;99.90;;;;;;10384480;28;20041;-84
2023/01/17 07:51:18;;;;;;;85.17;41.87;;;2.10;99.90;;;;;;10415882;28;20633;-84
2023/01/17 07:56:19;;;;;;;94.03;45.80;;;2.10;99.90;;;;;;10402127;28;20053;-84
2023/01/17 08:01:19;;;;;;;90.10;42.97;;;2.20;99.90;;;;;;10402586;28;20151;-84
2023/01/17 08:06:24;;;;;;;84.50;39.57;;;2.20;99.90;;;;;;10401296;28;20021;-83
2023/01/17 08:11:25;;;;;;;74.33;33.13;;;2.20;99.90;;;;;;10401891;28;20507;-85
2023/01/17 08:16:27;;;;;;;60.10;31.10;;;2.20;99.90;;;;;;10402309;28;20032;-85
2023/01/17 08:21:28;;;;;;;88.57;43.47;;;2.30;99.90;;;;;;10401125;28;20172;-84
2023/01/17 08:26:28;;;;;;;104.07;50.53;;;2.30;99.90;;;;;;10400970;28;20052;-85
2023/01/17 08:31:31;;;;;;;105.40;51.33;;;2.40;99.90;;;;;;10360455;28;20520;-84
2023/01/17 08:36:32;;;;;;;79.63;36.97;;;2.50;99.90;;;;;;10383147;28;20033;-86
2023/01/17 08:41:32;;;;;;;55.97;30.60;;;2.50;99.90;;;;;;10382795;28;20025;-85
2023/01/17 08:46:33;;;;;;;53.93;29.77;;;2.60;99.90;;;;;;10400868;28;20038;-84
2023/01/17 08:51:34;;;;;;;50.43;26.33;;;2.70;99.90;;;;;;10382892;28;20029;-83
2023/01/17 08:56:34;;;;;;;61.57;31.37;;;2.80;99.90;;;;;;10401249;28;20643;-84
2023/01/17 09:01:40;;;;;;;59.73;31.90;;;2.90;99.90;;;;;;10400043;28;20033;-83
2023/01/17 09:06:44;;;;;;;57.53;28.60;;;3.10;99.90;;;;;;10400824;28;20134;-83
2023/01/17 09:11:44;;;;;;;41.40;21.03;;;3.20;99.90;;;;;;10382845;28;20053;-85
2023/01/17 09:16:45;;;;;;;39.83;19.80;;;3.30;99.90;;;;;;10383325;28;20026;-84
2023/01/17 09:21:46;;;;;;;38.50;19.33;;;3.50;99.90;;;;;;10389575;28;20116;-84
2023/01/17 09:26:46;;;;;;;38.10;18.10;;;3.50;99.90;;;;;;10407783;28;20052;-84
2023/01/17 09:31:47;;;;;;;32.07;15.80;;;3.70;99.90;;;;;;10389186;28;20038;-84
2023/01/17 09:36:47;;;;;;;35.47;16.43;;;3.80;99.90;;;;;;10406996;28;20080;-84
2023/01/17 09:42:00;;;;;;;30.20;14.70;;;3.80;99.90;;;;;;10407118;28;20520;-84
2023/01/17 09:47:12;;;;;;;28.47;14.23;;;4.00;99.90;;;;;;10406216;28;20037;-82
2023/01/17 09:52:19;;;;;;;27.03;13.20;;;4.10;99.90;;;;;;10398497;28;20025;-86
2023/01/17 09:58:03;;;;;;;29.03;13.77;;;4.20;99.90;;;;;;10388531;28;20116;-83
2023/01/17 10:03:24;;;;;;;24.37;12.67;;;4.30;99.90;;;;;;10348691;28;20042;-84
2023/01/17 10:08:39;;;;;;;26.70;13.67;;;4.40;99.90;;;;;;10388051;28;20028;-83
2023/01/17 10:13:54;;;;;;;38.50;16.17;;;4.40;99.90;;;;;;10388486;28;20026;-84
2023/01/17 10:19:06;;;;;;;38.37;17.37;;;4.60;99.90;;;;;;10406721;28;20357;-83
2023/01/17 10:24:25;;;;;;;26.93;13.77;;;4.90;99.90;;;;;;10405837;28;20421;-83
2023/01/17 10:29:33;;;;;;;21.80;10.77;;;5.20;99.90;;;;;;10406101;28;20222;-85
2023/01/17 10:34:52;;;;;;;19.30;9.90;;;5.50;99.90;;;;;;10405417;28;20041;-83
2023/01/17 10:39:56;;;;;;;44.83;17.33;;;5.60;99.90;;;;;;10405651;28;20030;-86
2023/01/17 10:45:19;;;;;;;20.50;9.97;;;5.90;99.90;;;;;;10404641;28;20052;-86
2023/01/17 10:50:22;;;;;;;42.17;16.17;;;5.90;99.90;;;;;;10404507;28;20121;-85
2023/01/17 10:55:57;;;;;;;37.77;15.50;;;5.80;99.90;;;;;;10403966;28;20056;-84
2023/01/17 11:01:00;;;;;;;38.27;14.77;;;5.80;99.90;;;;;;10385934;28;20091;-83
2023/01/17 11:06:22;;;;;;;26.20;12.07;;;6.00;99.90;;;;;;10403933;28;20044;-83
2023/01/17 11:11:28;;;;;;;27.10;12.30;;;6.20;99.90;;;;;;10417144;28;20370;-84
2023/01/17 11:16:30;;;;;;;29.33;12.67;;;6.30;99.90;;;;;;10385611;28;20029;-84
2023/01/17 11:21:31;;;;;;;19.07;8.70;;;6.40;99.90;;;;;;10402922;28;20809;-85
2023/01/17 11:26:34;;;;;;;14.40;7.10;;;6.50;99.90;;;;;;10402558;28;20092;-85
2023/01/17 11:31:35;;;;;;;23.97;10.13;;;6.60;99.90;;;;;;10402335;28;20037;-83
2023/01/17 11:36:35;;;;;;;14.43;6.53;;;6.60;99.90;;;;;;10402959;28;20040;-83
2023/01/17 11:41:38;;;;;;;19.27;8.90;;;6.70;99.90;;;;;;10415315;28;20098;-86
2023/01/17 11:46:39;;;;;;;18.03;8.63;;;6.70;99.90;;;;;;10384830;28;20087;-85
2023/01/17 11:51:41;;;;;;;11.60;5.67;;;6.80;99.90;;;;;;10402464;28;20039;-85
2023/01/17 11:56:44;;;;;;;16.63;8.07;;;6.80;99.90;;;;;;10382235;28;20057;-83
2023/01/17 12:02:22;;;;;;;13.67;6.57;;;6.90;99.90;;;;;;10402449;28;20483;-85
2023/01/17 12:07:43;;;;;;;15.60;8.20;;;7.00;99.90;;;;;;10371735;28;20047;-85
2023/01/17 12:19:02;;;;;;;14.63;6.93;;;7.30;99.90;;;;;;10401297;28;20079;-83
2023/01/17 12:24:26;;;;;;;22.23;10.07;;;7.40;99.90;;;;;;10365108;28;20044;-85
2023/01/17 12:29:48;;;;;;;44.93;16.87;;;7.30;99.90;;;;;;10383846;28;20037;-85
2023/01/17 12:35:09;;;;;;;15.03;7.33;;;7.40;99.90;;;;;;10401306;28;20038;-82
2023/01/17 12:40:23;;;;;;;10.57;5.10;;;7.50;99.90;;;;;;10400931;28;20483;-84
2023/01/17 12:45:31;;;;;;;9.33;5.60;;;7.50;99.90;;;;;;10401241;28;20559;-83
2023/01/17 12:50:39;;;;;;;12.80;6.50;;;7.50;99.90;;;;;;10400918;28;20083;-83
2023/01/17 12:56:18;;;;;;;9.97;4.70;;;7.40;99.90;;;;;;10389871;28;20057;-83
2023/01/17 13:01:41;;;;;;;20.13;7.73;;;7.40;99.90;;;;;;10384757;28;20041;-84
2023/01/17 13:06:58;;;;;;;7.07;4.27;;;7.40;99.90;;;;;;10389968;28;20077;-84
2023/01/17 13:12:27;;;;;;;8.10;4.13;;;7.30;99.90;;;;;;10406758;28;20057;-82
2023/01/17 13:17:50;;;;;;;7.63;4.37;;;7.20;99.90;;;;;;10410317;28;20095;-84
2023/01/17 13:22:52;;;;;;;11.67;5.20;;;7.20;99.90;;;;;;10407333;28;20036;-84
2023/01/17 13:27:52;;;;;;;37.13;15.17;;;7.20;99.90;;;;;;10378759;28;20033;-83
2023/01/17 13:33:11;;;;;;;37.83;14.13;;;7.30;99.90;;;;;;10391031;28;20396;-83
2023/01/17 13:38:53;;;;;;;49.90;22.13;;;7.30;99.90;;;;;;10407396;28;20028;-82
2023/01/17 13:49:25;;;;;;;9.47;4.73;;;7.10;99.90;;;;;;10407008;28;20759;-83
2023/01/17 13:54:33;;;;;;;29.97;11.03;;;7.00;99.90;;;;;;10401109;28;20049;-83
2023/01/17 13:59:34;;;;;;;33.17;12.77;;;6.90;99.90;;;;;;10387704;28;20036;-82
2023/01/17 14:05:14;;;;;;;13.67;5.83;;;6.90;99.90;;;;;;10404249;28;20404;-84
2023/01/17 14:11:04;;;;;;;25.00;10.30;;;6.80;99.90;;;;;;10387499;28;20527;-80
2023/01/17 14:16:26;;;;;;;17.63;6.37;;;6.70;99.90;;;;;;10379310;28;20041;-83
2023/01/17 14:21:34;;;;;;;29.73;11.33;;;6.60;99.90;;;;;;10405312;28;20025;-83
2023/01/17 14:26:55;;;;;;;20.87;6.57;;;6.50;99.90;;;;;;10404707;28;20041;-80
2023/01/17 14:32:02;;;;;;;15.67;6.50;;;6.30;99.90;;;;;;10404222;28;20029;-82
2023/01/17 14:37:14;;;;;;;25.83;8.10;;;6.10;99.90;;;;;;10404037;28;20090;-84
2023/01/17 14:42:22;;;;;;;18.47;6.73;;;5.90;99.90;;;;;;10404402;28;20424;-82
2023/01/17 14:47:23;;;;;;;29.20;12.17;;;5.70;99.90;;;;;;10403088;28;20029;-84
2023/01/17 14:52:24;;;;;;;19.73;9.00;;;5.50;99.90;;;;;;10403157;28;20856;-84
2023/01/17 14:57:27;;;;;;;65.90;24.13;;;5.40;99.90;;;;;;10394844;28;20030;-83
2023/01/17 15:02:27;;;;;;;53.33;18.10;;;5.30;99.90;;;;;;10385643;28;20059;-85
2023/01/17 15:07:31;;;;;;;109.43;36.33;;;5.10;99.90;;;;;;10402604;28;20048;-80
2023/01/17 15:12:35;;;;;;;37.77;15.00;;;5.00;99.90;;;;;;10401213;28;20053;-80
2023/01/17 15:17:36;;;;;;;49.10;19.87;;;4.80;99.90;;;;;;10402408;28;20048;-83
2023/01/17 15:22:37;;;;;;;65.17;25.50;;;4.60;99.90;;;;;;10401909;28;20033;-83
2023/01/17 15:27:37;;;;;;;92.13;36.97;;;4.40;99.90;;;;;;10385014;28;20080;-82
2023/01/17 15:32:38;;;;;;;80.10;34.23;;;4.10;99.90;;;;;;10401820;28;20045;-83
2023/01/17 15:37:40;;;;;;;125.43;60.83;;;3.80;99.90;;;;;;10385208;28;20033;-83
2023/01/17 15:42:42;;;;;;;115.30;52.57;;;3.60;99.90;;;;;;10402711;28;20083;-85
2023/01/17 15:47:43;;;;;;;148.87;58.83;;;3.30;99.90;;;;;;10401470;28;20095;-84
2023/01/17 15:52:52;;;;;;;95.50;40.80;;;3.10;99.90;;;;;;10384109;28;20087;-83
2023/01/17 15:57:53;;;;;;;101.67;46.30;;;3.00;99.90;;;;;;10400426;28;20025;-83
2023/01/17 16:02:54;;;;;;;99.03;45.40;;;2.90;99.90;;;;;;10399340;28;20032;-82
2023/01/17 16:08:05;;;;;;;85.50;38.23;;;2.70;99.90;;;;;;10399240;28;20042;-83
2023/01/17 16:13:07;;;;;;;63.07;28.77;;;2.60;99.90;;;;;;10402210;28;20073;-82
2023/01/17 16:18:17;;;;;;;63.07;28.33;;;2.60;99.90;;;;;;10400439;28;20120;-83
2023/01/17 16:23:18;;;;;;;71.20;33.10;;;2.60;99.90;;;;;;10383042;28;20108;-83
2023/01/17 16:28:19;;;;;;;69.47;30.30;;;2.60;99.90;;;;;;10403719;28;20124;-81
2023/01/17 16:33:20;;;;;;;79.73;34.63;;;2.50;99.90;;;;;;10417679;28;20396;-82
2023/01/17 16:38:20;;;;;;;92.87;40.23;;;2.40;99.90;;;;;;10408767;28;20029;-82
2023/01/17 16:43:21;;;;;;;99.83;48.30;;;2.40;99.90;;;;;;10418862;28;20044;-84
2023/01/17 16:48:21;;;;;;;148.77;63.87;;;2.40;99.90;;;;;;10413647;28;20100;-82
2023/01/17 16:53:27;;;;;;;185.60;78.00;;;2.40;99.90;;;;;;10413844;28;20057;-80
2023/01/17 16:58:27;;;;;;;254.63;111.87;;;2.30;99.90;;;;;;10426741;28;20029;-79
2023/01/17 17:03:28;;;;;;;167.00;72.33;;;2.30;99.90;;;;;;10408421;28;20420;-84
2023/01/17 17:08:32;;;;;;;117.83;51.13;;;2.30;99.90;;;;;;10406421;28;20534;-80
2023/01/17 17:13:35;;;;;;;117.87;51.50;;;2.30;99.90;;;;;;10409353;28;20488;-80
2023/01/17 17:18:35;;;;;;;109.63;49.30;;;2.30;99.90;;;;;;10402973;28;20033;-80
2023/01/17 17:23:36;;;;;;;136.33;60.10;;;2.40;99.90;;;;;;10409090;28;20053;-83
2023/01/17 17:28:36;;;;;;;152.63;72.33;;;2.30;99.90;;;;;;10395317;28;20034;-81
2023/01/17 17:33:37;;;;;;;142.33;66.00;;;2.30;99.90;;;;;;10406558;28;20038;-79
2023/01/17 17:38:49;;;;;;;126.43;60.93;;;2.30;99.90;;;;;;10403684;28;20485;-80
2023/01/17 17:43:51;;;;;;;116.90;55.10;;;2.30;99.90;;;;;;10408389;28;20041;-79
2023/01/17 17:48:52;;;;;;;202.43;90.00;;;2.30;99.90;;;;;;10413645;28;20539;-81
2023/01/17 17:53:54;;;;;;;202.20;90.97;;;2.30;99.90;;;;;;10403623;28;20032;-81
2023/01/17 17:58:56;;;;;;;187.27;86.53;;;2.20;99.90;;;;;;10404625;28;20061;-82
2023/01/17 18:04:01;;;;;;;175.20;71.80;;;2.20;99.90;;;;;;10385825;28;20029;-80
2023/01/17 18:09:02;;;;;;;83.60;35.40;;;2.20;99.90;;;;;;10403971;28;20044;-83
2023/01/17 18:14:05;;;;;;;62.37;26.47;;;2.20;99.90;;;;;;10408461;28;20033;-82
2023/01/17 18:19:06;;;;;;;50.07;24.90;;;2.30;99.90;;;;;;10410005;28;20029;-83
2023/01/17 18:24:09;;;;;;;96.33;40.23;;;2.30;99.90;;;;;;10410187;28;20122;-82
2023/01/17 18:29:16;;;;;;;129.63;60.60;;;2.30;99.90;;;;;;10409304;28;20022;-80
2023/01/17 18:34:22;;;;;;;165.67;72.43;;;2.30;99.90;;;;;;10388626;28;20037;-83
2023/01/17 18:39:25;;;;;;;154.33;65.80;;;2.30;99.90;;;;;;10403329;28;20029;-84
2023/01/17 18:44:26;;;;;;;147.37;63.03;;;2.30;99.90;;;;;;10390108;28;20179;-85
2023/01/17 18:49:27;;;;;;;135.73;57.33;;;2.30;99.90;;;;;;10408516;28;20602;-85
2023/01/17 18:54:28;;;;;;;123.67;51.73;;;2.30;99.90;;;;;;10404381;28;20048;-85
2023/01/17 18:59:29;;;;;;;101.80;42.87;;;2.30;99.90;;;;;;10407940;28;20037;-83
2023/01/17 19:04:32;;;;;;;85.77;37.83;;;2.40;99.90;;;;;;10397439;28;20477;-83
2023/01/17 19:09:33;;;;;;;89.40;38.67;;;2.50;99.90;;;;;;10406510;28;20034;-82
2023/01/17 19:14:34;;;;;;;93.40;43.47;;;2.50;99.90;;;;;;10383420;28;20025;-84
2023/01/17 19:19:35;;;;;;;81.17;39.00;;;2.40;99.90;;;;;;10401640;28;20025;-83
2023/01/17 19:24:37;;;;;;;90.27;40.93;;;2.40;99.90;;;;;;10401766;28;20052;-82
2023/01/17 19:29:38;;;;;;;91.73;42.50;;;2.40;99.90;;;;;;10401096;28;20067;-82
2023/01/17 19:34:38;;;;;;;84.57;39.60;;;2.40;99.90;;;;;;10385428;28;20137;-83
2023/01/17 19:39:39;;;;;;;88.20;40.40;;;2.40;99.90;;;;;;10402423;28;20043;-83
2023/01/17 19:44:43;;;;;;;95.40;41.77;;;2.40;99.90;;;;;;10407577;28;20389;-83
2023/01/17 19:49:44;;;;;;;100.30;42.87;;;2.30;99.90;;;;;;10412912;28;20064;-81
2023/01/17 19:54:45;;;;;;;98.53;44.17;;;2.30;99.90;;;;;;10385048;28;20032;-82
2023/01/17 19:59:45;;;;;;;118.63;49.43;;;2.40;99.90;;;;;;10415483;28;20047;-83
2023/01/17 20:04:46;;;;;;;133.47;58.40;;;2.40;99.90;;;;;;10411083;28;20148;-82
2023/01/17 20:09:46;;;;;;;150.37;67.73;;;2.40;99.90;;;;;;10405615;28;20901;-84
2023/01/17 20:14:48;;;;;;;167.80;75.87;;;2.40;99.90;;;;;;10386156;28;20038;-83
2023/01/17 20:19:49;;;;;;;169.20;79.07;;;2.30;99.90;;;;;;10394988;28;20040;-83
2023/01/17 20:24:49;;;;;;;173.93;81.07;;;2.20;99.90;;;;;;10382252;28;20038;-84
2023/01/17 20:29:50;;;;;;;159.67;73.90;;;2.00;99.90;;;;;;10380925;28;20037;-82
2023/01/17 20:34:50;;;;;;;154.57;69.67;;;1.90;99.90;;;;;;10401054;28;20045;-84
2023/01/17 20:39:52;;;;;;;140.83;64.57;;;1.90;99.90;;;;;;10399346;28;20076;-83
2023/01/17 20:44:53;;;;;;;134.53;60.07;;;1.90;99.90;;;;;;10400518;28;20514;-83
2023/01/17 20:49:54;;;;;;;135.97;57.57;;;1.90;99.90;;;;;;10391166;28;20025;-81
2023/01/17 20:54:54;;;;;;;132.83;58.70;;;2.00;99.90;;;;;;10412092;28;20029;-83
2023/01/17 20:59:55;;;;;;;154.37;68.37;;;2.00;99.90;;;;;;10406936;28;20045;-86
2023/01/17 21:04:57;;;;;;;140.23;64.97;;;2.00;99.90;;;;;;10403174;28;20038;-83
2023/01/17 21:09:57;;;;;;;142.43;60.47;;;2.00;99.90;;;;;;10381820;28;20163;-82
2023/01/17 21:14:58;;;;;;;120.40;54.67;;;2.00;99.90;;;;;;10385099;28;20075;-83
2023/01/17 21:19:59;;;;;;;107.90;47.43;;;1.90;99.90;;;;;;10412415;28;20021;-82
2023/01/17 21:24:59;;;;;;;106.97;50.23;;;2.00;99.90;;;;;;10406823;28;20500;-84
2023/01/17 21:30:00;;;;;;;121.27;58.73;;;2.10;99.90;;;;;;10391013;28;20025;-82
2023/01/17 21:35:01;;;;;;;125.53;59.70;;;2.20;99.90;;;;;;10400432;28;20025;-83
2023/01/17 21:40:01;;;;;;;123.07;57.40;;;2.30;99.90;;;;;;10401779;28;20037;-84
2023/01/17 21:45:02;;;;;;;123.47;56.23;;;2.30;99.90;;;;;;10412690;28;20064;-85
2023/01/17 21:50:02;;;;;;;117.47;53.27;;;2.30;99.90;;;;;;10412593;28;20117;-83
2023/01/17 22:00:23;;;;;;;116.67;52.20;;;2.30;99.90;;;;;;10407690;28;20037;-84
2023/01/17 22:05:24;;;;;;;117.20;49.80;;;2.30;99.90;;;;;;10398759;28;20061;-84
2023/01/17 22:10:24;;;;;;;97.07;42.33;;;2.20;99.90;;;;;;10405674;28;20120;-82
2023/01/17 22:15:25;;;;;;;89.50;37.57;;;2.30;99.90;;;;;;10407612;28;20119;-83
2023/01/17 22:20:25;;;;;;;67.77;31.63;;;2.30;99.90;;;;;;10416687;28;20025;-84
2023/01/17 22:25:26;;;;;;;83.73;35.90;;;2.40;99.90;;;;;;10403037;28;20726;-84
2023/01/17 22:30:26;;;;;;;72.47;32.00;;;2.40;99.90;;;;;;10387843;28;20021;-84
2023/01/17 22:35:27;;;;;;;76.90;33.73;;;2.50;99.90;;;;;;10386297;28;20025;-83
2023/01/17 22:40:28;;;;;;;82.70;39.93;;;2.60;99.90;;;;;;10407870;28;20045;-84
2023/01/17 22:45:28;;;;;;;101.13;44.73;;;2.60;99.90;;;;;;10411413;28;20047;-83
2023/01/17 22:50:29;;;;;;;97.13;42.83;;;2.60;99.90;;;;;;10408226;28;20029;-83
2023/01/17 22:55:30;;;;;;;96.60;41.80;;;2.50;99.90;;;;;;10388602;28;20120;-86
2023/01/17 23:00:30;;;;;;;89.93;40.30;;;2.40;99.90;;;;;;10386667;28;20029;-85
2023/01/17 23:05:31;;;;;;;86.73;38.10;;;2.30;99.90;;;;;;10403933;28;20037;-83
2023/01/17 23:21:10;;;;;;;82.73;37.83;;;2.40;99.90;;;;;;10413340;28;20532;-84
2023/01/17 23:26:11;;;;;;;70.13;33.60;;;2.40;99.90;;;;;;10401642;28;20136;-82
2023/01/17 23:31:11;;;;;;;73.43;34.83;;;2.40;99.90;;;;;;10410865;28;20380;-84
2023/01/17 23:36:12;;;;;;;73.17;32.57;;;2.50;99.90;;;;;;10414567;28;20138;-83
2023/01/17 23:46:33;;;;;;;77.60;34.00;;;2.50;99.90;;;;;;10384256;28;20045;-85
2023/01/17 23:51:34;;;;;;;80.50;37.83;;;2.50;99.90;;;;;;10407547;28;20029;-84
2023/01/17 23:56:34;;;;;;;86.87;38.00;;;2.40;99.90;;;;;;10401897;28;20039;-83
